Time;durP1;ratioP1;P1;durP2;ratioP2;P2;SDS_P1;SDS_P2;PMS_P1;PMS_P2;Temp;Humidity;BMP_temperature;BMP_pressure;BME280_temperature;BME280_humidity;BME280_pressure;Samples;Min_cycle;Max_cycle;Signal;HPM_P1;HPM_P2
2023/03/18 00:01:17;;;;;;;24.98;18.70;;;10.20;99.90;;;;;;4777826;29;20111;-79
2023/03/18 00:03:44;;;;;;;26.05;19.60;;;10.10;99.90;;;;;;4792976;29;20059;-79
2023/03/18 00:06:17;;;;;;;26.52;18.50;;;10.10;99.90;;;;;;4778366;29;20093;-79
2023/03/18 00:08:45;;;;;;;26.52;20.38;;;10.00;99.90;;;;;;4793298;29;20139;-79
2023/03/18 00:11:12;;;;;;;26.27;20.52;;;9.90;99.90;;;;;;4808308;29;20084;-78
2023/03/18 00:13:40;;;;;;;27.45;20.83;;;9.80;99.90;;;;;;4808041;29;20085;-79
2023/03/18 00:16:09;;;;;;;27.23;20.58;;;9.80;99.90;;;;;;4792983;29;20460;-80
2023/03/18 00:18:35;;;;;;;27.70;19.73;;;9.70;99.90;;;;;;4807924;29;20500;-80
2023/03/18 00:21:02;;;;;;;28.02;19.90;;;9.70;99.90;;;;;;4792743;29;20058;-80
2023/03/18 00:23:28;;;;;;;28.30;20.90;;;9.60;99.90;;;;;;4778078;29;20054;-79
2023/03/18 00:25:56;;;;;;;29.05;21.38;;;9.60;99.90;;;;;;4806683;29;20065;-79
2023/03/18 00:28:23;;;;;;;28.52;20.45;;;9.50;99.90;;;;;;4792948;29;20134;-79
2023/03/18 00:30:50;;;;;;;27.63;20.85;;;9.40;99.90;;;;;;4778514;29;20504;-78
2023/03/18 00:33:16;;;;;;;33.67;22.45;;;9.40;99.90;;;;;;4808919;29;20170;-80
2023/03/18 00:35:44;;;;;;;30.88;22.33;;;9.30;99.90;;;;;;4806817;29;20054;-79
2023/03/18 00:38:19;;;;;;;31.83;23.02;;;9.30;99.90;;;;;;4792107;29;20055;-80
2023/03/18 00:40:52;;;;;;;31.38;22.75;;;9.20;99.90;;;;;;4792083;29;20059;-79
2023/03/18 00:43:28;;;;;;;35.60;23.38;;;9.20;99.90;;;;;;4777715;29;20059;-79
2023/03/18 00:45:55;;;;;;;33.78;24.27;;;9.10;99.90;;;;;;4792614;29;20046;-80
2023/03/18 00:48:23;;;;;;;31.63;24.27;;;9.00;99.90;;;;;;4809107;29;20051;-79
2023/03/18 00:50:49;;;;;;;33.28;23.63;;;9.00;99.90;;;;;;4792515;29;20485;-79
2023/03/18 00:53:15;;;;;;;34.22;24.85;;;8.90;99.90;;;;;;4806967;29;20057;-79
2023/03/18 00:55:41;;;;;;;35.90;24.48;;;8.90;99.90;;;;;;4776813;29;20129;-79
2023/03/18 00:58:08;;;;;;;37.92;24.45;;;8.80;99.90;;;;;;4791689;29;20057;-80
2023/03/18 01:00:36;;;;;;;31.00;23.48;;;8.80;99.90;;;;;;4791898;29;20050;-79
2023/03/18 01:03:03;;;;;;;33.17;23.98;;;8.80;99.90;;;;;;4807330;29;20087;-79
2023/03/18 01:05:30;;;;;;;34.90;23.67;;;8.70;99.90;;;;;;4807104;29;20062;-79
2023/03/18 01:07:56;;;;;;;33.90;25.05;;;8.70;99.90;;;;;;4791936;29;20051;-79
2023/03/18 01:10:23;;;;;;;37.50;24.40;;;8.60;99.90;;;;;;4806411;29;20453;-79
2023/03/18 01:12:49;;;;;;;39.78;25.80;;;8.60;99.90;;;;;;4792258;29;20426;-79
2023/03/18 01:15:18;;;;;;;38.67;26.10;;;8.60;99.90;;;;;;4806583;29;20067;-79
2023/03/18 01:17:44;;;;;;;36.55;25.00;;;8.50;99.90;;;;;;4791542;29;20047;-79
2023/03/18 01:20:12;;;;;;;40.47;25.00;;;8.50;99.90;;;;;;4806778;29;20165;-79
2023/03/18 01:22:40;;;;;;;35.90;25.95;;;8.40;99.90;;;;;;4791441;29;20059;-79
2023/03/18 01:25:08;;;;;;;38.15;27.83;;;8.40;99.90;;;;;;4791184;29;20070;-78
2023/03/18 01:27:35;;;;;;;40.17;26.92;;;8.30;99.90;;;;;;4806755;29;20446;-79
2023/03/18 01:30:02;;;;;;;39.83;28.17;;;8.30;99.90;;;;;;4806408;29;20054;-79
2023/03/18 01:32:27;;;;;;;40.70;27.13;;;8.20;99.90;;;;;;4806482;29;20097;-78
2023/03/18 01:34:53;;;;;;;35.00;26.30;;;8.20;99.90;;;;;;4792067;29;20086;-79
2023/03/18 01:37:20;;;;;;;39.00;27.92;;;8.20;99.90;;;;;;4806353;29;20102;-78
2023/03/18 01:39:46;;;;;;;42.20;28.08;;;8.10;99.90;;;;;;4806492;29;20077;-79
2023/03/18 01:42:13;;;;;;;42.08;28.13;;;8.10;99.90;;;;;;4791598;29;20046;-78
2023/03/18 01:44:39;;;;;;;43.10;29.92;;;8.00;99.90;;;;;;4791382;29;20058;-78
2023/03/18 01:47:06;;;;;;;42.00;29.08;;;8.00;99.90;;;;;;4805993;29;20065;-77
2023/03/18 01:49:49;;;;;;;46.90;30.58;;;7.30;99.90;;;;;;4806207;29;20054;-78
2023/03/18 01:52:21;;;;;;;45.78;30.60;;;7.90;99.90;;;;;;4791313;29;20046;-78
2023/03/18 01:54:54;;;;;;;45.95;30.92;;;7.90;99.90;;;;;;4791180;29;20050;-78
2023/03/18 01:57:21;;;;;;;47.10;31.52;;;7.80;99.90;;;;;;4806945;29;20062;-80
2023/03/18 01:59:50;;;;;;;45.28;31.60;;;7.80;99.90;;;;;;4806156;29;20055;-78
2023/03/18 02:02:16;;;;;;;50.60;33.42;;;7.80;99.90;;;;;;4806369;29;20138;-78
2023/03/18 02:04:55;;;;;;;51.38;32.42;;;7.80;99.90;;;;;;4806393;29;20059;-78
2023/03/18 02:07:27;;;;;;;49.72;31.92;;;7.80;99.90;;;;;;4806125;29;20055;-79
2023/03/18 02:09:55;;;;;;;48.28;33.30;;;7.80;99.90;;;;;;4805339;29;20491;-78
2023/03/18 02:12:37;;;;;;;51.47;32.78;;;7.70;99.90;;;;;;4805717;29;20051;-78
2023/03/18 02:15:07;;;;;;;49.50;33.10;;;7.70;99.90;;;;;;4791558;29;20130;-79
2023/03/18 02:17:40;;;;;;;50.72;33.13;;;7.80;99.90;;;;;;4791801;29;20055;-78
2023/03/18 02:20:21;;;;;;;48.85;32.63;;;7.70;99.90;;;;;;4791207;29;20476;-79
2023/03/18 02:22:52;;;;;;;49.72;32.40;;;7.70;99.90;;;;;;4790741;29;20127;-78
2023/03/18 02:25:24;;;;;;;55.60;33.10;;;7.70;99.90;;;;;;4805174;29;20522;-79
2023/03/18 02:28:12;;;;;;;55.13;33.35;;;7.60;99.90;;;;;;4806229;29;20081;-79
2023/03/18 02:30:52;;;;;;;52.28;33.80;;;7.60;99.90;;;;;;4805961;29;20514;-78
2023/03/18 02:33:21;;;;;;;55.78;35.13;;;7.60;99.90;;;;;;4805546;29;20481;-78
2023/03/18 02:36:02;;;;;;;57.50;36.17;;;7.60;99.90;;;;;;4790094;29;20492;-78
2023/03/18 02:38:28;;;;;;;62.78;36.00;;;7.60;99.90;;;;;;4805229;29;20553;-78
2023/03/18 02:40:53;;;;;;;54.65;34.28;;;7.60;99.90;;;;;;4790385;29;20188;-79
2023/03/18 02:43:26;;;;;;;55.97;35.10;;;7.60;99.90;;;;;;4790457;29;20132;-79
2023/03/18 02:46:19;;;;;;;59.55;37.17;;;7.60;99.90;;;;;;4790699;29;20059;-79
2023/03/18 02:48:46;;;;;;;62.83;36.72;;;7.60;99.90;;;;;;4789847;29;20051;-79
2023/03/18 02:51:15;;;;;;;67.35;37.30;;;7.60;99.90;;;;;;4790987;29;20333;-79
2023/03/18 02:53:41;;;;;;;64.57;38.20;;;7.70;99.90;;;;;;4805829;29;20391;-78
2023/03/18 02:56:08;;;;;;;61.92;37.42;;;7.70;99.90;;;;;;4805177;29;20086;-78
2023/03/18 02:58:35;;;;;;;61.60;38.42;;;7.70;99.90;;;;;;4806574;29;20085;-78
2023/03/18 03:01:02;;;;;;;61.40;38.35;;;7.70;99.90;;;;;;4776099;29;20062;-77
2023/03/18 03:03:28;;;;;;;64.47;38.03;;;7.70;99.90;;;;;;4805879;29;20050;-77
2023/03/18 03:05:55;;;;;;;60.53;37.60;;;7.70;99.90;;;;;;4790399;29;20535;-78
2023/03/18 03:08:21;;;;;;;70.00;38.45;;;7.70;99.90;;;;;;4805695;29;20066;-80
2023/03/18 03:10:49;;;;;;;63.95;37.53;;;7.70;99.90;;;;;;4805899;29;20047;-78
2023/03/18 03:13:15;;;;;;;64.35;37.55;;;7.70;99.90;;;;;;4789773;29;20145;-77
2023/03/18 03:15:41;;;;;;;66.25;38.28;;;7.70;99.90;;;;;;4774661;29;20055;-77
2023/03/18 03:18:07;;;;;;;77.93;38.97;;;7.70;99.90;;;;;;4805194;29;20058;-78
2023/03/18 03:20:36;;;;;;;149.85;40.30;;;7.70;99.90;;;;;;4776844;29;20105;-77
2023/03/18 03:23:06;;;;;;;129.05;35.30;;;7.60;99.90;;;;;;4809040;29;20507;-78
2023/03/18 03:25:32;;;;;;;266.58;35.47;;;7.70;99.90;;;;;;4793728;29;20062;-78
2023/03/18 03:27:59;;;;;;;228.75;32.55;;;7.70;99.90;;;;;;4793939;29;20054;-77
2023/03/18 03:30:25;;;;;;;241.55;33.05;;;7.50;99.90;;;;;;4808636;29;20081;-78
2023/03/18 03:32:51;;;;;;;258.35;36.53;;;7.40;99.90;;;;;;4793140;29;20047;-78
2023/03/18 03:35:18;;;;;;;89.82;27.30;;;7.40;99.90;;;;;;4779410;29;20525;-78
2023/03/18 03:37:44;;;;;;;236.35;29.73;;;7.30;99.90;;;;;;4778731;29;20050;-77
2023/03/18 03:40:14;;;;;;;244.77;27.73;;;7.30;99.90;;;;;;4793349;29;20112;-77
2023/03/18 03:42:41;;;;;;;147.57;20.00;;;7.20;99.90;;;;;;4809013;29;20062;-78
2023/03/18 03:45:08;;;;;;;140.80;19.63;;;7.10;99.90;;;;;;4808629;29;20059;-79
2023/03/18 03:47:34;;;;;;;96.25;16.05;;;7.10;99.90;;;;;;4793072;29;20057;-78
2023/03/18 03:49:59;;;;;;;131.63;15.20;;;7.10;99.90;;;;;;4793356;29;20062;-78
2023/03/18 03:52:25;;;;;;;147.95;15.85;;;7.10;99.90;;;;;;4778150;29;20121;-79
2023/03/18 03:54:52;;;;;;;93.15;13.20;;;7.10;99.90;;;;;;4792730;29;20099;-79
2023/03/18 03:57:22;;;;;;;110.90;14.55;;;7.10;99.90;;;;;;4778752;29;20062;-78
2023/03/18 03:59:49;;;;;;;162.13;15.45;;;7.10;99.90;;;;;;4793243;29;20051;-77
2023/03/18 04:02:16;;;;;;;160.20;15.80;;;7.10;99.90;;;;;;4808373;29;20103;-78
2023/03/18 04:04:44;;;;;;;173.13;16.73;;;7.00;99.90;;;;;;4793915;29;20074;-78
2023/03/18 04:07:10;;;;;;;100.60;13.27;;;7.00;99.90;;;;;;4808351;29;20508;-78
2023/03/18 04:09:37;;;;;;;135.93;15.38;;;7.00;99.90;;;;;;4778945;29;20397;-78
2023/03/18 04:12:04;;;;;;;129.85;15.30;;;7.00;99.90;;;;;;4793710;29;20057;-78
2023/03/18 04:14:30;;;;;;;142.07;16.08;;;6.90;99.90;;;;;;4808236;29;20058;-79
2023/03/18 04:16:58;;;;;;;106.93;15.52;;;6.90;99.90;;;;;;4807879;29;20137;-79
2023/03/18 04:19:24;;;;;;;95.80;14.40;;;6.90;99.90;;;;;;4792863;29;20051;-79
2023/03/18 04:21:50;;;;;;;155.20;15.93;;;7.00;99.90;;;;;;4778088;29;20057;-78
2023/03/18 04:24:17;;;;;;;227.73;20.90;;;6.90;99.90;;;;;;4807477;29;20058;-79
2023/03/18 04:26:43;;;;;;;164.75;17.98;;;7.00;99.90;;;;;;4808219;29;20055;-79
2023/03/18 04:29:09;;;;;;;188.68;18.75;;;6.90;99.90;;;;;;4778011;29;20133;-79
2023/03/18 04:31:35;;;;;;;217.10;19.40;;;6.90;99.90;;;;;;4777482;29;20047;-79
2023/03/18 04:34:00;;;;;;;67.32;14.35;;;6.90;99.90;;;;;;4762985;29;20093;-79
2023/03/18 04:36:27;;;;;;;128.80;15.55;;;6.90;99.90;;;;;;4808003;29;20126;-79
2023/03/18 04:38:53;;;;;;;162.45;18.00;;;6.90;99.90;;;;;;4792749;29;20054;-79
2023/03/18 04:41:19;;;;;;;116.63;15.13;;;6.80;99.90;;;;;;4792491;29;20199;-79
2023/03/18 04:43:45;;;;;;;63.55;13.73;;;6.80;99.90;;;;;;4807538;29;20159;-79
2023/03/18 04:46:11;;;;;;;82.82;13.98;;;6.80;99.90;;;;;;4807730;29;20111;-79
2023/03/18 04:48:38;;;;;;;89.60;15.25;;;6.80;99.90;;;;;;4777780;29;20138;-79
2023/03/18 04:51:07;;;;;;;82.38;14.75;;;6.80;99.90;;;;;;4792902;29;20101;-79
2023/03/18 04:53:33;;;;;;;113.60;15.10;;;6.80;99.90;;;;;;4807414;29;20047;-79
2023/03/18 04:55:59;;;;;;;281.92;21.08;;;6.80;99.90;;;;;;4777607;29;20513;-79
2023/03/18 04:58:25;;;;;;;211.90;17.77;;;6.80;99.90;;;;;;4792247;29;20063;-79
2023/03/18 05:00:52;;;;;;;103.53;13.60;;;6.80;99.90;;;;;;4776846;29;20062;-79
2023/03/18 05:03:18;;;;;;;163.13;16.15;;;6.80;99.90;;;;;;4807462;29;20123;-78
2023/03/18 05:05:44;;;;;;;134.30;16.20;;;6.80;99.90;;;;;;4792327;29;20093;-79
2023/03/18 05:08:10;;;;;;;111.90;14.38;;;6.90;99.90;;;;;;4791846;29;20054;-79
2023/03/18 05:10:37;;;;;;;81.80;13.90;;;6.90;99.90;;;;;;4791965;29;20430;-78
2023/03/18 05:13:02;;;;;;;107.32;14.13;;;6.90;99.90;;;;;;4777146;29;20058;-78
2023/03/18 05:15:28;;;;;;;101.55;15.30;;;6.90;99.90;;;;;;4776824;29;20055;-79
2023/03/18 05:17:54;;;;;;;100.72;14.63;;;7.00;99.90;;;;;;4777062;29;20131;-79
2023/03/18 05:20:20;;;;;;;123.65;15.52;;;7.00;99.90;;;;;;4777004;29;20146;-79
2023/03/18 05:22:46;;;;;;;50.03;12.07;;;7.00;99.90;;;;;;4776755;29;20077;-79
2023/03/18 05:25:12;;;;;;;93.50;14.70;;;7.10;99.90;;;;;;4791057;29;20080;-79
2023/03/18 05:27:37;;;;;;;131.18;15.18;;;7.10;99.90;;;;;;4806340;29;20161;-79
2023/03/18 05:30:05;;;;;;;93.10;14.27;;;7.10;99.90;;;;;;4806176;29;20050;-79
2023/03/18 05:32:31;;;;;;;59.92;12.88;;;7.10;99.90;;;;;;4791080;29;20495;-79
2023/03/18 05:34:57;;;;;;;38.80;12.07;;;7.90;99.90;;;;;;4791689;29;20050;-79
2023/03/18 05:37:23;;;;;;;99.50;14.32;;;7.20;99.90;;;;;;4806189;29;20046;-79
2023/03/18 05:39:49;;;;;;;39.70;11.73;;;7.20;99.90;;;;;;4807011;29;20106;-79
2023/03/18 05:42:15;;;;;;;54.45;13.02;;;7.20;99.90;;;;;;4775906;29;20053;-79
2023/03/18 05:44:41;;;;;;;60.00;13.13;;;7.20;99.90;;;;;;4805292;29;20057;-79
2023/03/18 05:47:08;;;;;;;61.20;13.32;;;7.20;99.90;;;;;;4791161;29;20054;-79
2023/03/18 05:49:34;;;;;;;62.42;13.63;;;7.20;99.90;;;;;;4776410;29;20094;-79
2023/03/18 05:52:00;;;;;;;46.15;13.40;;;7.20;99.90;;;;;;4806088;29;20133;-79
2023/03/18 05:54:26;;;;;;;60.05;14.88;;;7.20;99.90;;;;;;4805872;29;20058;-79
2023/03/18 05:56:52;;;;;;;51.08;15.27;;;7.20;99.90;;;;;;4805943;29;20101;-79
2023/03/18 05:59:18;;;;;;;46.40;14.98;;;7.20;99.90;;;;;;4791346;29;20093;-79
2023/03/18 06:01:44;;;;;;;45.95;16.23;;;7.20;99.90;;;;;;4776945;29;20051;-79
2023/03/18 06:04:10;;;;;;;46.72;17.67;;;7.20;99.90;;;;;;4806298;29;20047;-79
2023/03/18 06:06:39;;;;;;;40.85;16.85;;;7.20;99.90;;;;;;4791130;29;20047;-79
2023/03/18 06:09:09;;;;;;;53.05;20.33;;;7.30;99.90;;;;;;4776649;29;20130;-79
2023/03/18 06:11:35;;;;;;;46.13;19.83;;;7.30;99.90;;;;;;4791198;29;20399;-79
2023/03/18 06:14:03;;;;;;;59.38;23.90;;;7.30;99.90;;;;;;4805944;29;20065;-79
2023/03/18 06:16:30;;;;;;;47.30;21.48;;;7.30;99.90;;;;;;4790700;29;20043;-78
2023/03/18 06:18:57;;;;;;;56.58;22.70;;;7.30;99.90;;;;;;4790862;29;20136;-79
2023/03/18 06:21:23;;;;;;;54.88;25.95;;;7.30;99.90;;;;;;4806607;29;20058;-77
2023/03/18 06:23:49;;;;;;;50.95;22.60;;;7.30;99.90;;;;;;4791050;29;20058;-78
2023/03/18 06:26:15;;;;;;;58.13;29.90;;;7.40;99.90;;;;;;4805641;29;20126;-78
2023/03/18 06:28:41;;;;;;;59.67;29.83;;;7.40;99.90;;;;;;4790864;29;20514;-78
2023/03/18 06:31:07;;;;;;;64.13;32.83;;;7.40;99.90;;;;;;4761441;29;20104;-78
2023/03/18 06:33:33;;;;;;;66.13;33.88;;;7.40;99.90;;;;;;4790964;29;20051;-78
2023/03/18 06:36:00;;;;;;;65.22;32.30;;;7.50;99.90;;;;;;4790443;29;20053;-78
2023/03/18 06:38:27;;;;;;;61.70;33.50;;;7.50;99.90;;;;;;4776979;29;20059;-78
2023/03/18 06:40:54;;;;;;;59.70;32.67;;;7.60;99.90;;;;;;4805515;29;20055;-76
2023/03/18 06:43:20;;;;;;;65.20;34.13;;;7.60;99.90;;;;;;4791213;29;20065;-76
2023/03/18 06:45:47;;;;;;;61.58;33.10;;;7.60;99.90;;;;;;4807056;29;20058;-76
2023/03/18 06:48:13;;;;;;;62.65;33.60;;;7.70;99.90;;;;;;4791463;29;20454;-77
2023/03/18 06:50:39;;;;;;;62.97;34.45;;;7.70;99.90;;;;;;4790985;29;20047;-77
2023/03/18 06:53:06;;;;;;;63.33;35.25;;;7.80;99.90;;;;;;4805428;29;20382;-78
2023/03/18 06:55:32;;;;;;;68.25;35.97;;;7.80;99.90;;;;;;4804330;29;20050;-79
2023/03/18 06:57:58;;;;;;;65.68;35.25;;;7.80;99.90;;;;;;4805892;29;20051;-80
2023/03/18 07:00:24;;;;;;;74.05;38.90;;;7.90;99.90;;;;;;4789966;29;20511;-79
2023/03/18 07:02:51;;;;;;;67.70;36.88;;;8.00;99.90;;;;;;4805520;29;20059;-80
2023/03/18 07:05:17;;;;;;;68.47;37.03;;;8.00;99.90;;;;;;4775964;29;20047;-81
2023/03/18 07:07:43;;;;;;;70.20;37.33;;;8.10;99.90;;;;;;4790919;29;20054;-78
2023/03/18 07:10:17;;;;;;;64.53;36.67;;;8.20;99.90;;;;;;4805397;29;20047;-79
2023/03/18 07:12:42;;;;;;;66.25;35.05;;;8.20;99.90;;;;;;4789853;29;20069;-80
2023/03/18 07:15:10;;;;;;;66.93;38.30;;;8.30;99.90;;;;;;4774752;29;20047;-79
2023/03/18 07:17:36;;;;;;;67.45;37.22;;;8.30;99.90;;;;;;4790409;29;20069;-79
2023/03/18 07:20:04;;;;;;;69.13;37.92;;;8.40;99.90;;;;;;4775287;29;20141;-79
2023/03/18 07:22:30;;;;;;;61.75;37.53;;;8.50;99.90;;;;;;4775383;29;20058;-79
2023/03/18 07:24:56;;;;;;;66.40;36.22;;;8.50;99.90;;;;;;4789524;29;20061;-80
2023/03/18 07:27:22;;;;;;;71.32;39.53;;;8.60;99.90;;;;;;4789496;29;20055;-80
2023/03/18 07:29:48;;;;;;;64.57;37.80;;;8.70;99.90;;;;;;4790506;29;20054;-79
2023/03/18 07:32:14;;;;;;;63.97;38.72;;;8.70;99.90;;;;;;4774964;29;20073;-80
2023/03/18 07:34:40;;;;;;;65.15;37.67;;;8.80;99.90;;;;;;4790342;29;20111;-79
2023/03/18 07:37:05;;;;;;;62.90;37.72;;;8.90;99.90;;;;;;4804808;29;20051;-80
2023/03/18 07:39:32;;;;;;;58.55;37.42;;;9.00;99.90;;;;;;4804899;29;20054;-80
2023/03/18 07:41:58;;;;;;;65.75;39.60;;;9.10;99.90;;;;;;4774846;29;20054;-80
2023/03/18 07:44:24;;;;;;;61.97;38.35;;;9.10;99.90;;;;;;4789860;29;20051;-79
2023/03/18 07:46:50;;;;;;;61.08;36.85;;;9.20;99.90;;;;;;4790597;29;20061;-80
2023/03/18 07:49:16;;;;;;;63.08;38.58;;;9.30;99.90;;;;;;4805252;29;20047;-79
2023/03/18 07:51:42;;;;;;;58.70;36.75;;;9.30;99.90;;;;;;4790516;29;20145;-79
2023/03/18 07:54:08;;;;;;;57.92;38.17;;;9.40;99.90;;;;;;4760020;29;20057;-79
2023/03/18 07:56:34;;;;;;;54.22;34.88;;;9.50;99.90;;;;;;4774604;29;20474;-82
2023/03/18 07:58:59;;;;;;;52.15;34.30;;;9.50;99.90;;;;;;4774904;29;20093;-81
2023/03/18 08:01:26;;;;;;;54.45;34.95;;;9.60;99.90;;;;;;4774662;29;20564;-81
2023/03/18 08:03:52;;;;;;;48.47;35.10;;;9.60;99.90;;;;;;4774794;29;20422;-81
2023/03/18 08:06:18;;;;;;;56.25;36.17;;;9.70;99.90;;;;;;4790352;29;20051;-81
2023/03/18 08:08:44;;;;;;;51.10;35.03;;;9.70;99.90;;;;;;4777859;29;20055;-81
2023/03/18 08:11:10;;;;;;;49.58;32.92;;;9.70;99.90;;;;;;4792971;29;20551;-81
2023/03/18 08:13:38;;;;;;;48.05;33.53;;;9.70;99.90;;;;;;4808908;29;20112;-81
2023/03/18 08:16:04;;;;;;;49.67;31.52;;;9.70;99.90;;;;;;4793258;29;20059;-81
2023/03/18 08:18:30;;;;;;;46.10;32.45;;;9.70;99.90;;;;;;4763394;29;20050;-81
2023/03/18 08:20:55;;;;;;;47.92;33.50;;;9.70;99.90;;;;;;4808081;29;20051;-81
2023/03/18 08:23:23;;;;;;;46.63;32.50;;;9.70;99.90;;;;;;4777921;29;20111;-81
2023/03/18 08:25:49;;;;;;;48.47;30.58;;;9.70;99.90;;;;;;4806927;29;20116;-79
2023/03/18 08:28:16;;;;;;;45.33;30.08;;;9.80;99.90;;;;;;4808132;29;20353;-80
2023/03/18 08:30:42;;;;;;;40.17;28.95;;;9.70;99.90;;;;;;4762725;29;20050;-80
2023/03/18 08:33:09;;;;;;;44.13;29.98;;;9.70;99.90;;;;;;4793217;29;20071;-80
2023/03/18 08:35:35;;;;;;;40.70;29.88;;;9.80;99.90;;;;;;4777072;29;20055;-80
2023/03/18 08:38:02;;;;;;;42.55;29.83;;;9.80;99.90;;;;;;4792453;29;20055;-80
2023/03/18 08:40:28;;;;;;;36.45;28.27;;;9.80;99.90;;;;;;4793063;29;20062;-81
2023/03/18 08:42:54;;;;;;;41.08;27.60;;;9.80;99.90;;;;;;4792511;29;20047;-80
2023/03/18 08:45:20;;;;;;;40.45;29.10;;;9.80;99.90;;;;;;4792432;29;20062;-79
2023/03/18 08:47:46;;;;;;;38.88;27.95;;;9.80;99.90;;;;;;4777503;29;20051;-80
2023/03/18 08:50:13;;;;;;;42.30;28.65;;;9.80;99.90;;;;;;4792957;29;20166;-80
2023/03/18 08:52:40;;;;;;;37.00;27.05;;;9.80;99.90;;;;;;4792787;29;20461;-80
2023/03/18 08:55:08;;;;;;;43.20;28.63;;;9.90;99.90;;;;;;4807164;29;20492;-81
2023/03/18 08:57:34;;;;;;;39.80;26.05;;;9.90;99.90;;;;;;4791700;29;20062;-81
2023/03/18 09:00:00;;;;;;;37.38;25.83;;;10.00;99.90;;;;;;4762712;29;20051;-82
2023/03/18 09:02:26;;;;;;;34.92;25.65;;;10.00;99.90;;;;;;4762350;29;20392;-81
2023/03/18 09:04:54;;;;;;;35.42;25.02;;;10.10;99.90;;;;;;4792206;29;20051;-80
2023/03/18 09:07:20;;;;;;;32.53;23.67;;;10.10;99.90;;;;;;4777624;29;20066;-80
2023/03/18 09:09:46;;;;;;;37.28;25.02;;;10.10;99.90;;;;;;4792336;29;20055;-81
2023/03/18 09:12:13;;;;;;;32.45;23.70;;;10.20;99.90;;;;;;4791663;29;20046;-81
2023/03/18 09:14:41;;;;;;;38.00;25.83;;;10.30;99.90;;;;;;4791488;29;20047;-81
2023/03/18 09:17:07;;;;;;;31.33;23.67;;;10.30;99.90;;;;;;4792208;29;20472;-82
2023/03/18 09:19:34;;;;;;;33.80;23.40;;;10.30;99.90;;;;;;4791893;29;20146;-85
2023/03/18 09:22:00;;;;;;;31.48;22.38;;;10.40;99.90;;;;;;4776993;29;20081;-82
2023/03/18 09:24:26;;;;;;;29.90;21.30;;;10.50;99.90;;;;;;4791523;29;20496;-82
2023/03/18 09:26:54;;;;;;;30.48;21.58;;;10.60;99.90;;;;;;4776623;29;20063;-82
2023/03/18 09:29:20;;;;;;;31.95;22.67;;;10.60;99.90;;;;;;4776973;29;20063;-82
2023/03/18 09:31:46;;;;;;;32.90;21.77;;;10.80;99.90;;;;;;4791747;29;20055;-82
2023/03/18 09:34:13;;;;;;;29.67;22.02;;;10.90;99.90;;;;;;4776935;29;20061;-83
2023/03/18 09:36:39;;;;;;;29.98;22.00;;;11.00;99.90;;;;;;4762051;29;20042;-83
2023/03/18 09:39:05;;;;;;;27.92;21.20;;;11.20;99.90;;;;;;4776754;29;20066;-83
2023/03/18 09:41:57;;;;;;;28.30;21.65;;;11.30;99.90;;;;;;4792322;29;20050;-84
2023/03/18 09:44:30;;;;;;;30.50;22.25;;;11.50;99.90;;;;;;4791836;29;20108;-82
2023/03/18 09:47:15;;;;;;;27.30;20.05;;;11.70;99.90;;;;;;4806681;29;20050;-80
2023/03/18 09:49:59;;;;;;;30.08;20.75;;;12.00;99.90;;;;;;4791761;29;20062;-78
2023/03/18 09:52:36;;;;;;;24.58;18.58;;;12.30;99.90;;;;;;4791406;29;20476;-82
2023/03/18 09:55:21;;;;;;;22.75;16.40;;;12.70;99.90;;;;;;4791199;29;20100;-81
2023/03/18 09:57:50;;;;;;;18.13;13.85;;;13.10;99.90;;;;;;4791534;29;20090;-83
2023/03/18 10:00:36;;;;;;;16.75;10.95;;;13.50;99.90;;;;;;4791596;29;20047;-81
2023/03/18 10:03:32;;;;;;;18.42;11.07;;;14.00;99.90;;;;;;4806637;29;20065;-82
2023/03/18 10:06:24;;;;;;;21.10;14.40;;;14.40;99.90;;;;;;4791563;29;20139;-82
2023/03/18 10:16:25;;;;;;;16.60;12.20;;;15.30;99.90;;;;;;4780037;29;20119;-82
2023/03/18 10:18:51;;;;;;;15.80;11.45;;;15.70;99.90;;;;;;4792050;29;20061;-81
2023/03/18 10:21:20;;;;;;;14.93;9.73;;;16.10;99.90;;;;;;4776648;29;20055;-82
2023/03/18 10:23:58;;;;;;;10.88;7.47;;;16.40;99.90;;;;;;4790933;29;20381;-82
2023/03/18 10:26:36;;;;;;;7.53;5.45;;;16.60;99.90;;;;;;4790749;29;20097;-83
2023/03/18 10:29:41;;;;;;;6.78;5.03;;;16.70;99.90;;;;;;4790402;29;20549;-83
2023/03/18 10:32:27;;;;;;;5.78;4.30;;;16.80;99.90;;;;;;4790650;29;20112;-82
2023/03/18 10:35:00;;;;;;;;;;;16.80;99.90;;;;;;4805603;29;20126;-84
2023/03/18 10:37:55;;;;;;;6.40;3.80;;;17.00;99.90;;;;;;4809940;29;19925;-86
2023/03/18 10:40:23;;;;;;;4.60;3.28;;;17.20;99.90;;;;;;4795400;29;20114;-86
2023/03/18 10:42:52;;;;;;;4.38;2.90;;;17.50;99.90;;;;;;4795333;29;20051;-86
2023/03/18 10:45:27;;;;;;;4.88;2.70;;;17.60;99.90;;;;;;4796690;29;20062;-86
2023/03/18 10:48:02;;;;;;;4.60;3.42;;;17.90;99.90;;;;;;4792594;29;20082;-86
2023/03/18 10:50:45;;;;;;;4.93;2.60;;;18.10;99.90;;;;;;4806582;29;20050;-85
2023/03/18 10:53:39;;;;;;;3.45;2.15;;;18.30;99.90;;;;;;4805345;29;20066;-82
2023/03/18 10:56:11;;;;;;;3.28;2.20;;;18.50;99.90;;;;;;4789370;29;20094;-82
2023/03/18 10:58:38;;;;;;;3.30;1.83;;;18.80;99.90;;;;;;4805823;29;20057;-83
2023/03/18 11:01:15;;;;;;;2.72;1.90;;;19.00;99.90;;;;;;4791211;29;20503;-83
2023/03/18 11:04:05;;;;;;;4.13;1.67;;;19.20;99.90;;;;;;4806106;29;20062;-80
2023/03/18 11:06:54;;;;;;;2.88;1.70;;;19.50;99.90;;;;;;4806635;29;20137;-80
2023/03/18 11:09:27;;;;;;;3.10;1.92;;;19.60;99.90;;;;;;4791116;29;20085;-82
2023/03/18 11:12:01;;;;;;;3.45;1.50;;;19.90;99.90;;;;;;4806480;29;20059;-81
2023/03/18 11:14:30;;;;;;;3.00;1.70;;;20.20;99.90;;;;;;4792018;29;20413;-82
2023/03/18 11:17:01;;;;;;;4.47;2.40;;;20.40;99.90;;;;;;4791528;29;20058;-82
2023/03/18 11:19:36;;;;;;;4.07;2.80;;;20.50;99.90;;;;;;4806708;29;20055;-80
2023/03/18 11:22:09;;;;;;;4.28;2.33;;;20.50;99.90;;;;;;4790139;29;20059;-83
2023/03/18 11:24:42;;;;;;;2.58;2.10;;;20.40;99.90;;;;;;4805498;29;20051;-80
2023/03/18 11:27:17;;;;;;;4.25;2.90;;;20.50;99.90;;;;;;4805154;29;20090;-82
2023/03/18 11:29:54;;;;;;;3.33;2.38;;;20.50;99.90;;;;;;4805549;29;20133;-82
2023/03/18 11:32:27;;;;;;;4.50;3.30;;;20.70;99.90;;;;;;4805373;29;20055;-83
2023/03/18 11:35:01;;;;;;;4.05;3.42;;;20.80;99.90;;;;;;4805247;29;20055;-82
2023/03/18 11:37:36;;;;;;;5.88;3.75;;;20.90;99.90;;;;;;4805250;29;20094;-83
2023/03/18 11:40:24;;;;;;;5.38;4.57;;;21.00;99.90;;;;;;4805278;29;20209;-84
2023/03/18 11:42:57;;;;;;;6.03;3.95;;;21.00;99.90;;;;;;4793993;29;20085;-82
2023/03/18 11:45:47;;;;;;;6.22;4.45;;;21.20;99.90;;;;;;4808631;29;20065;-81
2023/03/18 11:48:18;;;;;;;5.75;3.92;;;21.40;99.90;;;;;;4809757;29;20074;-81
2023/03/18 11:51:21;;;;;;;6.65;4.78;;;21.60;99.90;;;;;;4808850;29;20480;-82
2023/03/18 11:54:02;;;;;;;7.28;4.93;;;21.60;99.90;;;;;;4793377;29;20050;-82
2023/03/18 11:56:34;;;;;;;7.05;5.03;;;21.70;99.90;;;;;;4793623;29;20093;-83
2023/03/18 11:59:12;;;;;;;6.85;5.25;;;21.80;99.90;;;;;;4793688;29;20050;-83
2023/03/18 12:01:46;;;;;;;5.95;5.10;;;21.20;99.90;;;;;;4808672;29;20047;-83
2023/03/18 12:04:28;;;;;;;5.10;4.57;;;21.10;99.90;;;;;;4793513;29;20445;-84
2023/03/18 12:07:39;;;;;;;6.57;5.00;;;21.30;99.90;;;;;;4808300;29;20055;-84
2023/03/18 12:10:12;;;;;;;6.65;5.50;;;21.30;99.90;;;;;;4793971;29;20059;-81
2023/03/18 12:13:05;;;;;;;7.47;6.68;;;21.60;99.90;;;;;;4792994;29;20112;-83
2023/03/18 12:15:51;;;;;;;8.80;6.90;;;21.80;99.90;;;;;;4792932;29;20508;-83
2023/03/18 12:18:20;;;;;;;;;;;22.20;99.90;;;;;;4809111;29;20051;-83
2023/03/18 12:20:55;;;;;;;7.35;5.93;;;22.10;99.90;;;;;;4823112;29;19932;-82
2023/03/18 12:23:30;;;;;;;11.02;5.63;;;22.00;99.90;;;;;;4807878;29;20512;-82
2023/03/18 12:25:59;;;;;;;6.93;5.65;;;22.00;99.90;;;;;;4792677;29;20121;-82
2023/03/18 12:28:41;;;;;;;6.55;4.88;;;21.80;99.90;;;;;;4792891;29;20054;-82
2023/03/18 12:31:31;;;;;;;5.97;4.78;;;21.20;99.90;;;;;;4792448;29;20429;-82
2023/03/18 12:34:03;;;;;;;7.35;5.40;;;20.90;99.90;;;;;;4808388;29;20073;-82
2023/03/18 12:36:56;;;;;;;7.38;5.43;;;20.60;99.90;;;;;;4807202;29;20046;-82
2023/03/18 12:39:48;;;;;;;4.95;3.40;;;20.70;99.90;;;;;;4807383;29;20188;-82
2023/03/18 12:42:25;;;;;;;4.25;2.92;;;20.70;99.90;;;;;;4792631;29;20154;-82
2023/03/18 12:44:59;;;;;;;4.50;3.45;;;20.40;99.90;;;;;;4808141;29;20086;-81
2023/03/18 12:47:41;;;;;;;7.97;3.40;;;20.00;99.90;;;;;;4792423;29;20051;-81
2023/03/18 12:50:13;;;;;;;4.78;3.47;;;19.90;99.90;;;;;;4807642;29;20046;-82
2023/03/18 12:52:51;;;;;;;5.47;3.65;;;19.90;99.90;;;;;;4791485;29;20094;-82
2023/03/18 12:55:22;;;;;;;7.45;4.40;;;20.00;99.90;;;;;;4808314;29;20120;-81
2023/03/18 12:58:14;;;;;;;7.13;5.40;;;20.00;99.90;;;;;;4808577;29;20063;-82